createdAt,value
2023-03-08T00:04:45.584Z,97044.55
2023-03-08T00:09:48.350Z,97049.80
2023-03-08T00:14:57.816Z,97052.02
2023-03-08T00:19:59.642Z,97049.80
2023-03-08T00:25:01.436Z,97054.21
2023-03-08T00:30:06.182Z,97051.00
2023-03-08T00:35:09.333Z,97047.11
2023-03-08T00:40:14.327Z,97054.22
2023-03-08T00:45:16.901Z,97051.67
2023-03-08T00:50:19.796Z,97043.91
2023-03-08T00:55:53.642Z,97053.88
2023-03-08T01:00:55.773Z,97054.05
2023-03-08T01:05:59.058Z,97055.41
2023-03-08T01:11:01.480Z,97046.45
2023-03-08T01:16:03.597Z,97048.14
2023-03-08T01:21:06.159Z,97048.64
2023-03-08T01:26:12.315Z,97048.15
2023-03-08T01:31:17.144Z,97046.96
2023-03-08T01:36:21.749Z,97047.64
2023-03-08T01:41:30.023Z,97046.29
2023-03-08T01:46:34.079Z,97043.76
2023-03-08T01:52:12.721Z,97041.04
2023-03-08T01:57:20.607Z,97038.84
2023-03-08T02:02:28.322Z,97040.37
2023-03-08T02:07:31.066Z,97043.58
2023-03-08T02:12:34.398Z,97038.84
2023-03-08T02:17:41.193Z,97041.89
2023-03-08T02:22:44.946Z,97046.77
2023-03-08T02:27:47.953Z,97054.36
2023-03-08T02:32:49.631Z,97062.79
2023-03-08T02:37:51.467Z,97070.72
2023-03-08T02:42:55.573Z,97080.20
2023-03-08T02:47:57.267Z,97089.00
2023-03-08T02:52:59.177Z,97099.34
2023-03-08T02:58:01.029Z,97104.75
2023-03-08T03:03:03.065Z,97106.61
2023-03-08T03:08:04.967Z,97106.45
2023-03-08T03:13:07.788Z,97111.88
2023-03-08T03:18:09.874Z,97118.80
2023-03-08T03:23:11.975Z,97127.24
2023-03-08T03:28:19.204Z,97130.27
2023-03-08T03:33:21.228Z,97138.89
2023-03-08T03:38:23.636Z,97141.94
2023-03-08T03:43:25.623Z,97148.02
2023-03-08T03:48:28.455Z,97148.17
2023-03-08T03:53:32.996Z,97149.17
2023-03-08T03:58:35.287Z,97156.44
2023-03-08T04:03:38.083Z,97176.54
2023-03-08T04:08:42.640Z,97177.88
2023-03-08T04:13:46.913Z,97173.48
2023-03-08T04:18:53.762Z,97165.52
2023-03-08T04:23:57.312Z,97176.15
2023-03-08T04:29:00.567Z,97185.95
2023-03-08T04:34:03.602Z,97186.63
2023-03-08T04:39:05.753Z,97174.80
2023-03-08T04:44:08.182Z,97191.00
2023-03-08T04:49:14.224Z,97201.95
2023-03-08T04:54:18.439Z,97201.26
2023-03-08T04:59:24.719Z,97189.42
2023-03-08T05:04:27.817Z,97197.20
2023-03-08T05:09:29.839Z,97202.27
2023-03-08T05:14:32.145Z,97195.70
2023-03-08T05:19:34.077Z,97196.67
2023-03-08T05:24:40.996Z,97199.34
2023-03-08T05:29:43.188Z,97212.92
2023-03-08T05:34:45.049Z,97219.61
2023-03-08T05:39:52.216Z,97223.16
2023-03-08T05:44:56.821Z,97218.67
2023-03-08T05:50:02.579Z,97217.08
2023-03-08T05:55:07.768Z,97217.93
2023-03-08T06:00:11.080Z,97248.86
2023-03-08T06:05:21.491Z,97264.76
2023-03-08T06:10:25.005Z,97276.61
2023-03-08T06:15:27.117Z,97285.28
2023-03-08T06:20:30.680Z,97303.10
2023-03-08T06:25:32.433Z,97306.55
2023-03-08T06:30:35.037Z,97299.66
2023-03-08T06:35:38.309Z,97301.54
2023-03-08T06:40:40.544Z,97314.95
2023-03-08T06:45:42.336Z,97319.77
2023-03-08T06:50:44.600Z,97327.57
2023-03-08T06:55:46.926Z,97330.64
2023-03-08T07:00:50.149Z,97333.03
2023-03-08T07:05:51.926Z,97336.31
2023-03-08T07:10:54.204Z,97346.88
2023-03-08T07:15:56.917Z,97337.95
2023-03-08T07:20:58.780Z,97351.52
2023-03-08T07:26:04.858Z,97360.85
2023-03-08T07:31:09.782Z,97367.45
2023-03-08T07:36:11.591Z,97387.80
2023-03-08T07:41:13.461Z,97387.11
2023-03-08T07:46:15.302Z,97394.58
2023-03-08T07:51:17.062Z,97406.78
2023-03-08T07:56:18.804Z,97408.48
2023-03-08T08:01:20.528Z,97404.91
2023-03-08T08:06:22.181Z,97382.70
2023-03-08T08:11:23.933Z,97382.37
2023-03-08T08:16:25.908Z,97385.42
2023-03-08T08:21:27.896Z,97378.80
2023-03-08T08:26:29.560Z,97375.25
2023-03-08T08:31:31.737Z,97378.64
2023-03-08T08:36:33.800Z,97382.71
2023-03-08T08:41:35.625Z,97382.19
2023-03-08T08:46:38.121Z,97390.66
2023-03-08T08:51:39.871Z,97399.76
2023-03-08T08:56:42.812Z,97406.84
2023-03-08T09:01:45.036Z,97397.90
2023-03-08T09:06:47.350Z,97394.36
2023-03-08T09:11:55.058Z,97382.48
2023-03-08T09:16:57.466Z,97375.89
2023-03-08T09:21:59.239Z,97375.71
2023-03-08T09:27:00.948Z,97369.30
2023-03-08T09:32:02.816Z,97372.34
2023-03-08T09:37:05.955Z,97373.20
2023-03-08T09:42:21.620Z,97365.08
2023-03-08T09:47:35.613Z,97371.17
2023-03-08T09:52:57.277Z,97375.90
2023-03-08T09:58:11.866Z,97373.31
2023-03-08T10:03:48.078Z,97364.91
2023-03-08T10:09:07.740Z,97361.71
2023-03-08T10:14:19.450Z,97346.02
2023-03-08T10:19:27.894Z,97301.95
2023-03-08T10:24:37.293Z,97329.98
2023-03-08T10:29:38.967Z,97322.84
2023-03-08T10:34:41.610Z,97319.17
2023-03-08T10:39:55.134Z,97318.58
2023-03-08T10:45:12.868Z,97321.48
2023-03-08T10:50:20.986Z,97321.30
2023-03-08T10:55:27.071Z,97313.13
2023-03-08T11:00:38.615Z,97311.35
2023-03-08T11:05:50.667Z,97316.42
2023-03-08T11:11:08.511Z,97307.41
2023-03-08T11:16:35.735Z,97296.95
2023-03-08T11:22:07.515Z,97287.36
2023-03-08T11:27:51.991Z,97273.16
2023-03-08T11:33:19.052Z,97269.55
2023-03-08T11:38:25.902Z,97267.16
2023-03-08T11:43:58.652Z,97267.16
2023-03-08T11:49:21.955Z,97255.35
2023-03-08T11:54:48.497Z,97231.64
2023-03-08T11:59:56.853Z,97220.17
2023-03-08T12:05:33.582Z,97209.09
2023-03-08T12:10:54.656Z,97202.20
2023-03-08T12:16:18.252Z,97192.48
2023-03-08T12:21:49.293Z,97184.33
2023-03-08T12:27:08.745Z,97180.63
2023-03-08T12:32:13.494Z,97183.04
2023-03-08T12:37:28.112Z,97176.83
2023-03-08T12:42:36.645Z,97181.20
2023-03-08T12:47:38.510Z,97177.02
2023-03-08T12:52:40.220Z,97171.88
2023-03-08T12:57:57.732Z,97165.98
2023-03-08T13:03:02.523Z,97158.05
2023-03-08T13:08:18.186Z,97155.45
2023-03-08T13:13:37.566Z,97150.38
2023-03-08T13:18:48.886Z,97144.91
2023-03-08T13:23:58.634Z,97139.86
2023-03-08T13:29:00.775Z,97128.95
2023-03-08T13:34:02.514Z,97120.61
2023-03-08T13:39:07.134Z,97116.84
2023-03-08T13:44:25.940Z,97111.30
2023-03-08T13:49:32.270Z,97100.89
2023-03-08T13:54:42.430Z,97088.29
2023-03-08T13:59:49.678Z,97073.03
2023-03-08T14:04:51.998Z,97060.17
2023-03-08T14:09:54.561Z,97040.67
2023-03-08T14:15:00.259Z,97029.19
2023-03-08T14:20:19.122Z,97031.55
2023-03-08T14:25:29.897Z,97034.73
2023-03-08T14:30:32.360Z,97025.57
2023-03-08T14:35:40.477Z,97019.45
2023-03-08T14:40:49.554Z,97024.19
2023-03-08T14:46:20.429Z,97020.90
2023-03-08T14:51:43.226Z,97016.23
2023-03-08T14:56:46.783Z,97012.88
2023-03-08T15:01:48.608Z,97002.50
2023-03-08T15:06:52.147Z,97005.04
2023-03-08T15:11:54.073Z,96991.30
2023-03-08T15:16:55.725Z,96988.73
2023-03-08T15:21:58.170Z,96981.76
2023-03-08T15:26:59.841Z,96968.52
2023-03-08T15:32:01.538Z,96964.48
2023-03-08T15:37:03.263Z,96952.05
2023-03-08T15:42:05.389Z,96957.77
2023-03-08T15:47:09.647Z,96948.40
2023-03-08T15:52:12.668Z,96946.86
2023-03-08T15:57:14.317Z,96953.29
2023-03-08T16:02:18.879Z,96954.83
2023-03-08T16:07:20.566Z,96956.23
2023-03-08T16:12:22.256Z,96954.08
2023-03-08T16:17:27.792Z,96958.41
2023-03-08T16:22:29.430Z,96954.98
2023-03-08T16:27:31.293Z,96956.14
2023-03-08T16:32:33.475Z,96954.02
2023-03-08T16:37:35.328Z,96959.55
2023-03-08T16:42:37.141Z,96966.44
2023-03-08T16:47:38.794Z,96976.70
2023-03-08T16:52:40.516Z,96974.21
2023-03-08T16:57:42.150Z,96975.27
2023-03-08T17:02:45.390Z,96971.86
2023-03-08T17:07:47.346Z,96969.00
2023-03-08T17:12:49.158Z,96952.39
2023-03-08T17:17:50.842Z,96944.80
2023-03-08T17:22:52.582Z,96932.76
2023-03-08T17:27:54.251Z,96929.77
2023-03-08T17:32:56.169Z,96934.73
2023-03-08T17:37:57.890Z,96930.89
2023-03-08T17:43:02.414Z,96922.10
2023-03-08T17:48:04.895Z,96916.77
2023-03-08T17:53:06.678Z,96912.80
2023-03-08T17:58:08.423Z,96904.22
2023-03-08T18:03:10.042Z,96894.33
2023-03-08T18:08:11.682Z,96884.30
2023-03-08T18:13:13.315Z,96871.07
2023-03-08T18:18:15.084Z,96863.96
2023-03-08T18:23:16.819Z,96855.02
2023-03-08T18:28:18.600Z,96855.45
2023-03-08T18:33:22.675Z,96843.52
2023-03-08T18:38:24.923Z,96836.23
2023-03-08T18:43:26.570Z,96827.94
2023-03-08T18:48:28.208Z,96824.86
2023-03-08T18:53:30.091Z,96813.92
2023-03-08T18:58:32.555Z,96803.41
2023-03-08T19:03:34.212Z,96808.03
2023-03-08T19:08:36.343Z,96794.55
2023-03-08T19:13:38.065Z,96785.14
2023-03-08T19:18:39.767Z,96782.48
2023-03-08T19:23:41.436Z,96772.80
2023-03-08T19:28:43.096Z,96763.52
2023-03-08T19:33:49.606Z,96763.77
2023-03-08T19:38:51.384Z,96759.98
2023-03-08T19:43:53.705Z,96751.86
2023-03-08T19:48:55.643Z,96747.81
2023-03-08T19:53:57.435Z,96750.55
2023-03-08T19:58:59.424Z,96744.27
2023-03-08T20:04:01.350Z,96738.27
2023-03-08T20:09:05.308Z,96738.42
2023-03-08T20:14:36.889Z,96738.69
2023-03-08T20:21:08.027Z,96739.45
2023-03-08T20:26:09.887Z,96727.50
2023-03-08T20:31:12.942Z,96719.23
2023-03-08T20:36:14.610Z,96714.49
2023-03-08T20:41:19.430Z,96702.91
2023-03-08T20:46:23.557Z,96701.52
2023-03-08T20:51:25.386Z,96698.33
2023-03-08T20:56:27.137Z,96696.58
2023-03-08T21:01:31.273Z,96693.21
2023-03-08T21:06:32.940Z,96689.08
2023-03-08T21:11:34.711Z,96683.79
2023-03-08T21:16:36.681Z,96686.64
2023-03-08T21:21:45.435Z,96687.02
2023-03-08T21:26:47.318Z,96691.02
2023-03-08T21:31:51.813Z,96682.80
2023-03-08T21:36:53.551Z,96678.27
2023-03-08T21:41:57.632Z,96680.34
2023-03-08T21:46:59.396Z,96682.95
2023-03-08T21:52:11.045Z,96682.98
2023-03-08T21:57:12.780Z,96685.58
2023-03-08T22:02:14.443Z,96680.72
2023-03-08T22:07:16.499Z,96676.22
2023-03-08T22:12:19.857Z,96671.02
2023-03-08T22:17:23.277Z,96669.61
2023-03-08T22:22:25.215Z,96662.69
2023-03-08T22:27:28.232Z,96655.00
2023-03-08T22:32:29.943Z,96649.02
2023-03-08T22:37:32.216Z,96650.02
2023-03-08T22:42:36.242Z,96645.25
2023-03-08T22:47:38.705Z,96649.82
2023-03-08T22:52:42.132Z,96638.92
2023-03-08T22:57:44.739Z,96644.80
2023-03-08T23:02:48.186Z,96644.90
2023-03-08T23:07:49.887Z,96636.59
2023-03-08T23:12:51.795Z,96632.39
2023-03-08T23:17:56.230Z,96625.47
2023-03-08T23:22:57.885Z,96623.27
2023-03-08T23:27:59.548Z,96621.73
2023-03-08T23:33:01.305Z,96612.69
2023-03-08T23:38:03.056Z,96608.64
2023-03-08T23:43:04.729Z,96609.75
2023-03-08T23:48:07.189Z,96607.28
2023-03-08T23:53:08.822Z,96611.92
2023-03-08T23:58:10.512Z,96616.23
